Levantes — V7DS6 — position and weather

sailwx.info

Track history (hours):
 
Tides and Currents Weather Stations Pressure Air Temp Water Temp Dewpoint Dewpoint Depression Visibility Wind Speed Wind Dir Waves Ship Positions

Levantes

Last reported at 2017-Dec-10 13:56 UTC. Time now 2017-Dec-16 17:03 UTC.
Position N 36°15' E 026°60'.

Length 225 m; draft 12.9 m.

Type: Cargo ship. MMSI: 538006969.

Date/timePositionNaut miles runAvg speedWind from/ knotsBaromVisibWave heightAir tempDewpointWater temp
2017-Dec-10 13:56N 36°15' E 026°60'711.0
2017-Dec-10 13:17N 36°21' E 026°54'511.6
2017-Dec-10 12:53N 36°24' E 026°50'410.7
2017-Dec-10 12:30N 36°27' E 026°47'510.4
2017-Dec-10 12:00N 36°31' E 026°42'510.1
2017-Dec-10 11:30N 36°35' E 026°38'510.4
2017-Dec-10 11:00N 36°39' E 026°34'510.3
2017-Dec-10 10:30N 36°42' E 026°29'510.5
2017-Dec-10 10:00N 36°46' E 026°25'510.7
2017-Dec-10 09:30N 36°50' E 026°21'510.6
2017-Dec-10 09:00N 36°54' E 026°17'510.4
2017-Dec-10 08:30N 36°58' E 026°12'510.4
2017-Dec-10 08:00N 37°01' E 026°07'510.7
2017-Dec-10 07:30N 37°05' E 026°01'510.8
2017-Dec-10 07:00N 37°08' E 025°56'510.8
2017-Dec-10 06:30N 37°11' E 025°50'611.1
2017-Dec-10 06:00N 37°12' E 025°44'810.8
2017-Dec-10 05:18N 37°14' E 025°34'310.9
2017-Dec-10 05:00N 37°15' E 025°31'510.8
2017-Dec-10 04:30N 37°16' E 025°24'510.7
2017-Dec-10 04:00N 37°18' E 025°17'510.4
2017-Dec-10 03:30N 37°20' E 025°12'510.0
2017-Dec-10 03:00N 37°23' E 025°07'510.0
2017-Dec-10 02:30N 37°27' E 025°03'510.1
2017-Dec-10 02:00N 37°31' E 024°59'510.5
2017-Dec-10 01:30N 37°34' E 024°54'5 9.8
2017-Dec-10 01:00N 37°38' E 024°49'510.1
2017-Dec-10 00:30N 37°41' E 024°44'510.8
2017-Dec-10 00:00N 37°42' E 024°38'510.7
2017-Dec-09 23:30N 37°43' E 024°31'510.8
2017-Dec-09 23:00N 37°44' E 024°24'510.5
2017-Dec-09 22:30N 37°45' E 024°18'510.6
2017-Dec-09 22:00N 37°46' E 024°11'3 0.9
2017-Dec-09 18:25N 37°47' E 024°07'4 9.3
2017-Dec-09 18:00N 37°49' E 024°12'5 9.5
2017-Dec-09 17:30N 37°50' E 024°17'510.9
2017-Dec-09 17:00N 37°53' E 024°24'511.1
2017-Dec-09 16:30N 37°55' E 024°30'  
2017-Dec-07 09:40N 43°22' E 028°60'710.7
2017-Dec-07 09:01N 43°29' E 028°59'010.3
2017-Dec-07 09:00N 43°29' E 028°59'510.8
2017-Dec-07 08:30N 43°35' E 028°58'510.8
2017-Dec-07 08:00N 43°40' E 028°58'510.6
2017-Dec-07 07:30N 43°45' E 028°58'510.6
2017-Dec-07 07:00N 43°51' E 028°57'510.8
2017-Dec-07 06:30N 43°55' E 028°53'510.6
2017-Dec-07 06:00N 43°59' E 028°48'510.5
2017-Dec-07 05:30N 44°03' E 028°44'4 7.2
2017-Dec-07 05:00N 44°06' E 028°41'1 1.5
2017-Dec-07 04:19N 44°06' E 028°40'0 0.0
2017-Dec-07 03:58N 44°06' E 028°40'0 0.0
2017-Dec-07 03:29N 44°06' E 028°40'0 0.0
2017-Dec-07 02:59N 44°06' E 028°40'0 0.0
2017-Dec-07 02:28N 44°06' E 028°40'0 0.0
2017-Dec-07 01:58N 44°06' E 028°40'0 0.0
2017-Dec-07 01:29N 44°06' E 028°40'0 0.0
2017-Dec-07 00:59N 44°06' E 028°40'0 0.0
2017-Dec-07 00:28N 44°06' E 028°40'0 0.0
2017-Dec-06 23:59N 44°06' E 028°40'0 0.0
2017-Dec-06 23:28N 44°06' E 028°40'0 0.0
2017-Dec-06 22:59N 44°06' E 028°40'0 0.0
2017-Dec-06 22:28N 44°06' E 028°40'0 0.0
2017-Dec-06 21:58N 44°06' E 028°40'0 0.0
2017-Dec-06 21:29N 44°06' E 028°40'0 0.0
2017-Dec-06 20:58N 44°06' E 028°40'  
2017-Dec-04 10:22N 44°06' E 028°40'0 0.0
2017-Dec-04 09:58N 44°06' E 028°40'0 0.0
2017-Dec-04 09:28N 44°06' E 028°40'0 0.0
2017-Dec-04 08:58N 44°06' E 028°40'0 0.0
2017-Dec-04 08:28N 44°06' E 028°40'0 0.0
2017-Dec-04 07:58N 44°06' E 028°40'0 0.0
2017-Dec-04 07:28N 44°06' E 028°40'0 0.0
2017-Dec-04 06:58N 44°06' E 028°40'0 0.0
2017-Dec-04 06:28N 44°06' E 028°40'0 0.0
2017-Dec-04 05:58N 44°06' E 028°40'0 0.0
2017-Dec-04 05:28N 44°06' E 028°40'0 0.0
2017-Dec-04 04:58N 44°06' E 028°40'0 0.0
2017-Dec-04 04:28N 44°06' E 028°40'0 0.0
2017-Dec-04 03:58N 44°06' E 028°40'0 0.0
2017-Dec-04 03:28N 44°06' E 028°40'0 0.0
2017-Dec-04 02:58N 44°06' E 028°40'0 0.0
2017-Dec-04 02:28N 44°06' E 028°40'0 0.0
2017-Dec-04 01:58N 44°06' E 028°40'0 0.0
2017-Dec-04 01:28N 44°06' E 028°40'0 0.0
2017-Dec-04 00:58N 44°06' E 028°40'0 0.0
2017-Dec-04 00:28N 44°06' E 028°40'0 0.0
2017-Dec-03 23:58N 44°06' E 028°40'0 0.0
2017-Dec-03 23:28N 44°06' E 028°40'0 0.0
2017-Dec-03 22:58N 44°06' E 028°40'0 0.0
2017-Dec-03 22:28N 44°06' E 028°40'0 0.0
2017-Dec-03 21:58N 44°06' E 028°40'0 0.0
2017-Dec-03 21:28N 44°06' E 028°40'0 0.0
2017-Dec-03 20:58N 44°06' E 028°40'0 0.0
2017-Dec-03 20:28N 44°06' E 028°40'0 0.0
2017-Dec-03 19:58N 44°06' E 028°40'0 0.0
2017-Dec-03 19:28N 44°06' E 028°40'0 0.0
2017-Dec-03 18:58N 44°06' E 028°40'0 0.0
2017-Dec-03 18:28N 44°06' E 028°40'0 0.0
2017-Dec-03 17:58N 44°06' E 028°40'0 0.0
2017-Dec-03 17:28N 44°06' E 028°40'0 0.0
2017-Dec-03 16:58N 44°06' E 028°40'0 0.0
2017-Dec-03 16:28N 44°06' E 028°40'0 0.0
2017-Dec-03 15:58N 44°06' E 028°40'0 0.0
2017-Dec-03 15:28N 44°06' E 028°40'0 0.0
2017-Dec-03 14:58N 44°06' E 028°40'0 0.0
2017-Dec-03 14:28N 44°06' E 028°40'0 0.0
2017-Dec-03 13:58N 44°06' E 028°40'0 0.0
2017-Dec-03 13:28N 44°06' E 028°40'0 0.0
2017-Dec-03 12:58N 44°06' E 028°40'0 0.0
2017-Dec-03 12:28N 44°06' E 028°40'0 0.0
2017-Dec-03 11:58N 44°06' E 028°40'0 0.0
2017-Dec-03 11:28N 44°06' E 028°40'0 0.0
2017-Dec-03 10:58N 44°06' E 028°40'0 0.0
2017-Dec-03 10:28N 44°06' E 028°40'0 0.0
2017-Dec-03 09:58N 44°06' E 028°40'0 0.0
2017-Dec-03 09:28N 44°06' E 028°40'0 0.0
2017-Dec-03 08:58N 44°06' E 028°40'0 0.0
2017-Dec-03 08:28N 44°06' E 028°40'0 0.0
2017-Dec-03 07:58N 44°06' E 028°40'0 0.0
2017-Dec-03 07:28N 44°06' E 028°40'0 0.0
2017-Dec-03 06:58N 44°06' E 028°40'0 0.0
2017-Dec-03 06:28N 44°06' E 028°40'0 0.0
2017-Dec-03 05:58N 44°06' E 028°40'0 0.0
2017-Dec-03 05:28N 44°06' E 028°40'0 0.0
2017-Dec-03 04:58N 44°06' E 028°40'0 0.0
2017-Dec-03 04:25N 44°06' E 028°40'0 0.0
2017-Dec-03 03:58N 44°06' E 028°40'0 0.0
2017-Dec-03 03:28N 44°06' E 028°40'0 0.0
2017-Dec-03 02:58N 44°06' E 028°40'0 0.0
2017-Dec-03 02:28N 44°06' E 028°40'0 0.0
2017-Dec-03 01:58N 44°06' E 028°40'0 0.0
2017-Dec-03 01:28N 44°06' E 028°40'0 0.0
2017-Dec-03 00:58N 44°06' E 028°40'0 0.0
2017-Dec-03 00:28N 44°06' E 028°40'0 0.0
2017-Dec-02 23:58N 44°06' E 028°40'0 0.0
2017-Dec-02 23:28N 44°06' E 028°40'0 0.0
2017-Dec-02 22:58N 44°06' E 028°40'0 0.0
2017-Dec-02 22:28N 44°06' E 028°40'0 0.0
2017-Dec-02 21:58N 44°06' E 028°40'0 0.0
2017-Dec-02 21:28N 44°06' E 028°40'0 0.0
2017-Dec-02 20:55N 44°06' E 028°40'0 0.0
2017-Dec-02 20:25N 44°06' E 028°40'0 0.0
2017-Dec-02 19:58N 44°06' E 028°40'0 0.0
2017-Dec-02 19:28N 44°06' E 028°40'0 0.0
2017-Dec-02 18:58N 44°06' E 028°40'0 0.0
2017-Dec-02 18:28N 44°06' E 028°40'0 0.0
2017-Dec-02 17:58N 44°06' E 028°40'0 0.0
2017-Dec-02 17:28N 44°06' E 028°40'0 0.0
2017-Dec-02 16:58N 44°06' E 028°40'0 0.0
2017-Dec-02 16:28N 44°06' E 028°40'0 0.0
2017-Dec-02 15:58N 44°06' E 028°40'0 0.0
2017-Dec-02 15:28N 44°06' E 028°40'0 0.0
2017-Dec-02 14:58N 44°06' E 028°40'0 0.0
2017-Dec-02 14:28N 44°06' E 028°40'0 0.0
2017-Dec-02 13:58N 44°06' E 028°40'0 0.0
2017-Dec-02 13:28N 44°06' E 028°40'0 0.0
2017-Dec-02 12:58N 44°06' E 028°40'0 0.0
2017-Dec-02 12:28N 44°06' E 028°40'0 0.0
2017-Dec-02 11:58N 44°06' E 028°40'0 0.0
2017-Dec-02 11:28N 44°06' E 028°40'0 0.0
2017-Dec-02 10:58N 44°06' E 028°40'0 0.0
2017-Dec-02 10:28N 44°06' E 028°40'0 0.0
2017-Dec-02 09:58N 44°06' E 028°40'0 0.0
2017-Dec-02 09:28N 44°06' E 028°40'0 0.0
2017-Dec-02 08:58N 44°06' E 028°40'0 0.0
2017-Dec-02 08:28N 44°06' E 028°40'0 0.0
2017-Dec-02 07:58N 44°06' E 028°40'0 0.0
2017-Dec-02 07:28N 44°06' E 028°40'0 0.0
2017-Dec-02 06:58N 44°06' E 028°40'0 0.0
2017-Dec-02 06:28N 44°06' E 028°40'0 0.0
2017-Dec-02 05:58N 44°06' E 028°40'0 0.0
2017-Dec-02 05:28N 44°06' E 028°40'0 0.0
2017-Dec-02 04:58N 44°06' E 028°40'0 0.0
2017-Dec-02 04:28N 44°06' E 028°40'0 0.0
2017-Dec-02 03:58N 44°06' E 028°40'0 0.0
2017-Dec-02 03:28N 44°06' E 028°40'0 0.0
2017-Dec-02 02:58N 44°06' E 028°40'0 0.0
2017-Dec-02 02:28N 44°06' E 028°40'0 0.0
2017-Dec-02 01:58N 44°06' E 028°40'0 0.0
2017-Dec-02 01:28N 44°06' E 028°40'0 0.0
2017-Dec-02 00:58N 44°06' E 028°40'0 0.0
2017-Dec-02 00:28N 44°06' E 028°40'0 0.0
2017-Dec-01 23:58N 44°06' E 028°40'0 0.0
2017-Dec-01 23:28N 44°06' E 028°40'0 0.0
2017-Dec-01 22:58N 44°06' E 028°40'0 0.0
2017-Dec-01 22:28N 44°06' E 028°40'0 0.0
2017-Dec-01 21:58N 44°06' E 028°40'0 0.0
2017-Dec-01 21:28N 44°06' E 028°40'0 0.0
2017-Dec-01 20:58N 44°06' E 028°40'0 0.0
2017-Dec-01 20:28N 44°06' E 028°40'0 0.0
2017-Dec-01 19:58N 44°06' E 028°40'0 0.0
2017-Dec-01 19:28N 44°06' E 028°40'0 0.0
2017-Dec-01 18:58N 44°06' E 028°40'0 0.0
2017-Dec-01 18:31N 44°06' E 028°40'0 0.0
2017-Dec-01 17:59N 44°06' E 028°40'0 0.0
2017-Dec-01 17:29N 44°06' E 028°40'0 0.0
2017-Dec-01 16:59N 44°06' E 028°40'0 0.0
2017-Dec-01 16:29N 44°06' E 028°40'0 0.0
2017-Dec-01 15:59N 44°06' E 028°40'0 0.1
2017-Dec-01 15:29N 44°06' E 028°40'1 2.0
2017-Dec-01 15:01N 44°06' E 028°41'2 4.5
2017-Dec-01 14:30N 44°08' E 028°40'1 2.5
2017-Dec-01 13:58N 44°10' E 028°39'0 0.3
2017-Dec-01 13:28N 44°10' E 028°39'0 0.0
2017-Dec-01 12:58N 44°10' E 028°39'0 0.0
2017-Dec-01 12:28N 44°10' E 028°39'0 0.0
2017-Dec-01 11:58N 44°10' E 028°39'0 0.0
2017-Dec-01 11:31N 44°10' E 028°39'0 0.0
2017-Dec-01 11:00N 44°10' E 028°39'0 0.0
2017-Dec-01 10:31N 44°10' E 028°39'0 0.0
2017-Dec-01 10:00N 44°10' E 028°39'0 0.0
2017-Dec-01 09:30N 44°10' E 028°39'0 0.0
2017-Dec-01 09:00N 44°10' E 028°39'0 0.0
2017-Dec-01 08:30N 44°10' E 028°39'0 0.0
2017-Dec-01 08:00N 44°10' E 028°39'0 0.0
2017-Dec-01 07:30N 44°10' E 028°39'0 0.0
2017-Dec-01 07:00N 44°10' E 028°39'0 0.0
2017-Dec-01 06:30N 44°10' E 028°39'0 0.0
2017-Dec-01 06:00N 44°10' E 028°39'0 0.0
2017-Dec-01 05:30N 44°10' E 028°39'0 0.0
2017-Dec-01 05:00N 44°10' E 028°39'0 0.0
2017-Dec-01 04:30N 44°10' E 028°39'0 0.0
2017-Dec-01 04:00N 44°10' E 028°39'0 0.0
2017-Dec-01 03:30N 44°10' E 028°39'0 0.0
2017-Dec-01 03:00N 44°10' E 028°39'0 0.0
2017-Dec-01 02:30N 44°10' E 028°39'0 0.0
2017-Dec-01 02:00N 44°10' E 028°39'0 0.0
2017-Dec-01 01:30N 44°10' E 028°39'0 0.0
2017-Dec-01 01:00N 44°10' E 028°39'0 0.0
2017-Dec-01 00:30N 44°10' E 028°39'0 0.1
2017-Dec-01 00:00N 44°10' E 028°39'0 0.0
2017-Nov-30 23:30N 44°10' E 028°39'0 0.0
2017-Nov-30 23:00N 44°10' E 028°39'0 0.0
2017-Nov-30 22:30N 44°10' E 028°39'0 0.0
2017-Nov-30 22:00N 44°10' E 028°39'0 0.0
2017-Nov-30 21:30N 44°10' E 028°39'0 0.0
2017-Nov-30 21:00N 44°10' E 028°39'0 0.0
2017-Nov-30 20:30N 44°10' E 028°39'0 0.0
2017-Nov-30 20:00N 44°10' E 028°39'0 0.0
2017-Nov-30 19:31N 44°10' E 028°39'0 0.0
2017-Nov-30 18:58N 44°10' E 028°39'0 0.0
2017-Nov-30 18:28N 44°10' E 028°39'0 0.0
2017-Nov-30 17:58N 44°10' E 028°39'0 0.0
2017-Nov-30 17:28N 44°10' E 028°39'0 0.0
2017-Nov-30 16:58N 44°10' E 028°39'0 0.0
2017-Nov-30 16:28N 44°10' E 028°39'0 0.0
2017-Nov-30 15:58N 44°10' E 028°39'0 0.0
2017-Nov-30 15:28N 44°10' E 028°39'0 0.0
2017-Nov-30 14:58N 44°10' E 028°39'0 0.0
2017-Nov-30 14:28N 44°10' E 028°39'0 0.0
2017-Nov-30 13:58N 44°10' E 028°39'  
Track history (hours):
 
Tides and Currents Weather Stations Pressure Air Temp Water Temp Dewpoint Dewpoint Depression Visibility Wind Speed Wind Dir Waves Ship Positions

Levantes

Last reported at 2017-Dec-10 13:56 UTC. Time now 2017-Dec-16 17:03 UTC.
Position N 36°15' E 026°60'.

Length 225 m; draft 12.9 m.

Type: Cargo ship. MMSI: 538006969.

Date/timePositionNaut miles runAvg speedWind from/ knotsBaromVisibWave heightAir tempDewpointWater temp
2017-Dec-10 13:56N 36°15' E 026°60'711.0
2017-Dec-10 13:17N 36°21' E 026°54'511.6
2017-Dec-10 12:53N 36°24' E 026°50'410.7
2017-Dec-10 12:30N 36°27' E 026°47'510.4
2017-Dec-10 12:00N 36°31' E 026°42'510.1
2017-Dec-10 11:30N 36°35' E 026°38'510.4
2017-Dec-10 11:00N 36°39' E 026°34'510.3
2017-Dec-10 10:30N 36°42' E 026°29'510.5
2017-Dec-10 10:00N 36°46' E 026°25'510.7
2017-Dec-10 09:30N 36°50' E 026°21'510.6
2017-Dec-10 09:00N 36°54' E 026°17'510.4
2017-Dec-10 08:30N 36°58' E 026°12'510.4
2017-Dec-10 08:00N 37°01' E 026°07'510.7
2017-Dec-10 07:30N 37°05' E 026°01'510.8
2017-Dec-10 07:00N 37°08' E 025°56'510.8
2017-Dec-10 06:30N 37°11' E 025°50'611.1
2017-Dec-10 06:00N 37°12' E 025°44'810.8
2017-Dec-10 05:18N 37°14' E 025°34'310.9
2017-Dec-10 05:00N 37°15' E 025°31'510.8
2017-Dec-10 04:30N 37°16' E 025°24'510.7
2017-Dec-10 04:00N 37°18' E 025°17'510.4
2017-Dec-10 03:30N 37°20' E 025°12'510.0
2017-Dec-10 03:00N 37°23' E 025°07'510.0
2017-Dec-10 02:30N 37°27' E 025°03'510.1
2017-Dec-10 02:00N 37°31' E 024°59'510.5
2017-Dec-10 01:30N 37°34' E 024°54'5 9.8
2017-Dec-10 01:00N 37°38' E 024°49'510.1
2017-Dec-10 00:30N 37°41' E 024°44'510.8
2017-Dec-10 00:00N 37°42' E 024°38'510.7
2017-Dec-09 23:30N 37°43' E 024°31'510.8
2017-Dec-09 23:00N 37°44' E 024°24'510.5
2017-Dec-09 22:30N 37°45' E 024°18'510.6
2017-Dec-09 22:00N 37°46' E 024°11'3 0.9
2017-Dec-09 18:25N 37°47' E 024°07'4 9.3
2017-Dec-09 18:00N 37°49' E 024°12'5 9.5
2017-Dec-09 17:30N 37°50' E 024°17'510.9
2017-Dec-09 17:00N 37°53' E 024°24'511.1
2017-Dec-09 16:30N 37°55' E 024°30'  
2017-Dec-07 09:40N 43°22' E 028°60'710.7
2017-Dec-07 09:01N 43°29' E 028°59'010.3
2017-Dec-07 09:00N 43°29' E 028°59'510.8
2017-Dec-07 08:30N 43°35' E 028°58'510.8
2017-Dec-07 08:00N 43°40' E 028°58'510.6
2017-Dec-07 07:30N 43°45' E 028°58'510.6
2017-Dec-07 07:00N 43°51' E 028°57'510.8
2017-Dec-07 06:30N 43°55' E 028°53'510.6
2017-Dec-07 06:00N 43°59' E 028°48'510.5
2017-Dec-07 05:30N 44°03' E 028°44'4 7.2
2017-Dec-07 05:00N 44°06' E 028°41'1 1.5
2017-Dec-07 04:19N 44°06' E 028°40'0 0.0
2017-Dec-07 03:58N 44°06' E 028°40'0 0.0
2017-Dec-07 03:29N 44°06' E 028°40'0 0.0
2017-Dec-07 02:59N 44°06' E 028°40'0 0.0
2017-Dec-07 02:28N 44°06' E 028°40'0 0.0
2017-Dec-07 01:58N 44°06' E 028°40'0 0.0
2017-Dec-07 01:29N 44°06' E 028°40'0 0.0
2017-Dec-07 00:59N 44°06' E 028°40'0 0.0
2017-Dec-07 00:28N 44°06' E 028°40'0 0.0
2017-Dec-06 23:59N 44°06' E 028°40'0 0.0
2017-Dec-06 23:28N 44°06' E 028°40'0 0.0
2017-Dec-06 22:59N 44°06' E 028°40'0 0.0
2017-Dec-06 22:28N 44°06' E 028°40'0 0.0
2017-Dec-06 21:58N 44°06' E 028°40'0 0.0
2017-Dec-06 21:29N 44°06' E 028°40'0 0.0
2017-Dec-06 20:58N 44°06' E 028°40'  
2017-Dec-04 10:22N 44°06' E 028°40'0 0.0
2017-Dec-04 09:58N 44°06' E 028°40'0 0.0
2017-Dec-04 09:28N 44°06' E 028°40'0 0.0
2017-Dec-04 08:58N 44°06' E 028°40'0 0.0
2017-Dec-04 08:28N 44°06' E 028°40'0 0.0
2017-Dec-04 07:58N 44°06' E 028°40'0 0.0
2017-Dec-04 07:28N 44°06' E 028°40'0 0.0
2017-Dec-04 06:58N 44°06' E 028°40'0 0.0
2017-Dec-04 06:28N 44°06' E 028°40'0 0.0
2017-Dec-04 05:58N 44°06' E 028°40'0 0.0
2017-Dec-04 05:28N 44°06' E 028°40'0 0.0
2017-Dec-04 04:58N 44°06' E 028°40'0 0.0
2017-Dec-04 04:28N 44°06' E 028°40'0 0.0
2017-Dec-04 03:58N 44°06' E 028°40'0 0.0
2017-Dec-04 03:28N 44°06' E 028°40'0 0.0
2017-Dec-04 02:58N 44°06' E 028°40'0 0.0
2017-Dec-04 02:28N 44°06' E 028°40'0 0.0
2017-Dec-04 01:58N 44°06' E 028°40'0 0.0
2017-Dec-04 01:28N 44°06' E 028°40'0 0.0
2017-Dec-04 00:58N 44°06' E 028°40'0 0.0
2017-Dec-04 00:28N 44°06' E 028°40'0 0.0
2017-Dec-03 23:58N 44°06' E 028°40'0 0.0
2017-Dec-03 23:28N 44°06' E 028°40'0 0.0
2017-Dec-03 22:58N 44°06' E 028°40'0 0.0
2017-Dec-03 22:28N 44°06' E 028°40'0 0.0
2017-Dec-03 21:58N 44°06' E 028°40'0 0.0
2017-Dec-03 21:28N 44°06' E 028°40'0 0.0
2017-Dec-03 20:58N 44°06' E 028°40'0 0.0
2017-Dec-03 20:28N 44°06' E 028°40'0 0.0
2017-Dec-03 19:58N 44°06' E 028°40'0 0.0
2017-Dec-03 19:28N 44°06' E 028°40'0 0.0
2017-Dec-03 18:58N 44°06' E 028°40'0 0.0
2017-Dec-03 18:28N 44°06' E 028°40'0 0.0
2017-Dec-03 17:58N 44°06' E 028°40'0 0.0
2017-Dec-03 17:28N 44°06' E 028°40'0 0.0
2017-Dec-03 16:58N 44°06' E 028°40'0 0.0
2017-Dec-03 16:28N 44°06' E 028°40'0 0.0
2017-Dec-03 15:58N 44°06' E 028°40'0 0.0
2017-Dec-03 15:28N 44°06' E 028°40'0 0.0
2017-Dec-03 14:58N 44°06' E 028°40'0 0.0
2017-Dec-03 14:28N 44°06' E 028°40'0 0.0
2017-Dec-03 13:58N 44°06' E 028°40'0 0.0
2017-Dec-03 13:28N 44°06' E 028°40'0 0.0
2017-Dec-03 12:58N 44°06' E 028°40'0 0.0
2017-Dec-03 12:28N 44°06' E 028°40'0 0.0
2017-Dec-03 11:58N 44°06' E 028°40'0 0.0
2017-Dec-03 11:28N 44°06' E 028°40'0 0.0
2017-Dec-03 10:58N 44°06' E 028°40'0 0.0
2017-Dec-03 10:28N 44°06' E 028°40'0 0.0
2017-Dec-03 09:58N 44°06' E 028°40'0 0.0
2017-Dec-03 09:28N 44°06' E 028°40'0 0.0
2017-Dec-03 08:58N 44°06' E 028°40'0 0.0
2017-Dec-03 08:28N 44°06' E 028°40'0 0.0
2017-Dec-03 07:58N 44°06' E 028°40'0 0.0
2017-Dec-03 07:28N 44°06' E 028°40'0 0.0
2017-Dec-03 06:58N 44°06' E 028°40'0 0.0
2017-Dec-03 06:28N 44°06' E 028°40'0 0.0
2017-Dec-03 05:58N 44°06' E 028°40'0 0.0
2017-Dec-03 05:28N 44°06' E 028°40'0 0.0
2017-Dec-03 04:58N 44°06' E 028°40'0 0.0
2017-Dec-03 04:25N 44°06' E 028°40'0 0.0
2017-Dec-03 03:58N 44°06' E 028°40'0 0.0
2017-Dec-03 03:28N 44°06' E 028°40'0 0.0
2017-Dec-03 02:58N 44°06' E 028°40'0 0.0
2017-Dec-03 02:28N 44°06' E 028°40'0 0.0
2017-Dec-03 01:58N 44°06' E 028°40'0 0.0
2017-Dec-03 01:28N 44°06' E 028°40'0 0.0
2017-Dec-03 00:58N 44°06' E 028°40'0 0.0
2017-Dec-03 00:28N 44°06' E 028°40'0 0.0
2017-Dec-02 23:58N 44°06' E 028°40'0 0.0
2017-Dec-02 23:28N 44°06' E 028°40'0 0.0
2017-Dec-02 22:58N 44°06' E 028°40'0 0.0
2017-Dec-02 22:28N 44°06' E 028°40'0 0.0
2017-Dec-02 21:58N 44°06' E 028°40'0 0.0
2017-Dec-02 21:28N 44°06' E 028°40'0 0.0
2017-Dec-02 20:55N 44°06' E 028°40'0 0.0
2017-Dec-02 20:25N 44°06' E 028°40'0 0.0
2017-Dec-02 19:58N 44°06' E 028°40'0 0.0
2017-Dec-02 19:28N 44°06' E 028°40'0 0.0
2017-Dec-02 18:58N 44°06' E 028°40'0 0.0
2017-Dec-02 18:28N 44°06' E 028°40'0 0.0
2017-Dec-02 17:58N 44°06' E 028°40'0 0.0
2017-Dec-02 17:28N 44°06' E 028°40'0 0.0
2017-Dec-02 16:58N 44°06' E 028°40'0 0.0
2017-Dec-02 16:28N 44°06' E 028°40'0 0.0
2017-Dec-02 15:58N 44°06' E 028°40'0 0.0
2017-Dec-02 15:28N 44°06' E 028°40'0 0.0
2017-Dec-02 14:58N 44°06' E 028°40'0 0.0
2017-Dec-02 14:28N 44°06' E 028°40'0 0.0
2017-Dec-02 13:58N 44°06' E 028°40'0 0.0
2017-Dec-02 13:28N 44°06' E 028°40'0 0.0
2017-Dec-02 12:58N 44°06' E 028°40'0 0.0
2017-Dec-02 12:28N 44°06' E 028°40'0 0.0
2017-Dec-02 11:58N 44°06' E 028°40'0 0.0
2017-Dec-02 11:28N 44°06' E 028°40'0 0.0
2017-Dec-02 10:58N 44°06' E 028°40'0 0.0
2017-Dec-02 10:28N 44°06' E 028°40'0 0.0
2017-Dec-02 09:58N 44°06' E 028°40'0 0.0
2017-Dec-02 09:28N 44°06' E 028°40'0 0.0
2017-Dec-02 08:58N 44°06' E 028°40'0 0.0
2017-Dec-02 08:28N 44°06' E 028°40'0 0.0
2017-Dec-02 07:58N 44°06' E 028°40'0 0.0
2017-Dec-02 07:28N 44°06' E 028°40'0 0.0
2017-Dec-02 06:58N 44°06' E 028°40'0 0.0
2017-Dec-02 06:28N 44°06' E 028°40'0 0.0
2017-Dec-02 05:58N 44°06' E 028°40'0 0.0
2017-Dec-02 05:28N 44°06' E 028°40'0 0.0
2017-Dec-02 04:58N 44°06' E 028°40'0 0.0
2017-Dec-02 04:28N 44°06' E 028°40'0 0.0
2017-Dec-02 03:58N 44°06' E 028°40'0 0.0
2017-Dec-02 03:28N 44°06' E 028°40'0 0.0
2017-Dec-02 02:58N 44°06' E 028°40'0 0.0
2017-Dec-02 02:28N 44°06' E 028°40'0 0.0
2017-Dec-02 01:58N 44°06' E 028°40'0 0.0
2017-Dec-02 01:28N 44°06' E 028°40'0 0.0
2017-Dec-02 00:58N 44°06' E 028°40'0 0.0
2017-Dec-02 00:28N 44°06' E 028°40'0 0.0
2017-Dec-01 23:58N 44°06' E 028°40'0 0.0
2017-Dec-01 23:28N 44°06' E 028°40'0 0.0
2017-Dec-01 22:58N 44°06' E 028°40'0 0.0
2017-Dec-01 22:28N 44°06' E 028°40'0 0.0
2017-Dec-01 21:58N 44°06' E 028°40'0 0.0
2017-Dec-01 21:28N 44°06' E 028°40'0 0.0
2017-Dec-01 20:58N 44°06' E 028°40'0 0.0
2017-Dec-01 20:28N 44°06' E 028°40'0 0.0
2017-Dec-01 19:58N 44°06' E 028°40'0 0.0
2017-Dec-01 19:28N 44°06' E 028°40'0 0.0
2017-Dec-01 18:58N 44°06' E 028°40'0 0.0
2017-Dec-01 18:31N 44°06' E 028°40'0 0.0
2017-Dec-01 17:59N 44°06' E 028°40'0 0.0
2017-Dec-01 17:29N 44°06' E 028°40'0 0.0
2017-Dec-01 16:59N 44°06' E 028°40'0 0.0
2017-Dec-01 16:29N 44°06' E 028°40'0 0.0
2017-Dec-01 15:59N 44°06' E 028°40'0 0.1
2017-Dec-01 15:29N 44°06' E 028°40'1 2.0
2017-Dec-01 15:01N 44°06' E 028°41'2 4.5
2017-Dec-01 14:30N 44°08' E 028°40'1 2.5
2017-Dec-01 13:58N 44°10' E 028°39'0 0.3
2017-Dec-01 13:28N 44°10' E 028°39'0 0.0
2017-Dec-01 12:58N 44°10' E 028°39'0 0.0
2017-Dec-01 12:28N 44°10' E 028°39'0 0.0
2017-Dec-01 11:58N 44°10' E 028°39'0 0.0
2017-Dec-01 11:31N 44°10' E 028°39'0 0.0
2017-Dec-01 11:00N 44°10' E 028°39'0 0.0
2017-Dec-01 10:31N 44°10' E 028°39'0 0.0
2017-Dec-01 10:00N 44°10' E 028°39'0 0.0
2017-Dec-01 09:30N 44°10' E 028°39'0 0.0
2017-Dec-01 09:00N 44°10' E 028°39'0 0.0
2017-Dec-01 08:30N 44°10' E 028°39'0 0.0
2017-Dec-01 08:00N 44°10' E 028°39'0 0.0
2017-Dec-01 07:30N 44°10' E 028°39'0 0.0
2017-Dec-01 07:00N 44°10' E 028°39'0 0.0
2017-Dec-01 06:30N 44°10' E 028°39'0 0.0
2017-Dec-01 06:00N 44°10' E 028°39'0 0.0
2017-Dec-01 05:30N 44°10' E 028°39'0 0.0
2017-Dec-01 05:00N 44°10' E 028°39'0 0.0
2017-Dec-01 04:30N 44°10' E 028°39'0 0.0
2017-Dec-01 04:00N 44°10' E 028°39'0 0.0
2017-Dec-01 03:30N 44°10' E 028°39'0 0.0
2017-Dec-01 03:00N 44°10' E 028°39'0 0.0
2017-Dec-01 02:30N 44°10' E 028°39'0 0.0
2017-Dec-01 02:00N 44°10' E 028°39'0 0.0
2017-Dec-01 01:30N 44°10' E 028°39'0 0.0
2017-Dec-01 01:00N 44°10' E 028°39'0 0.0
2017-Dec-01 00:30N 44°10' E 028°39'0 0.1
2017-Dec-01 00:00N 44°10' E 028°39'0 0.0
2017-Nov-30 23:30N 44°10' E 028°39'0 0.0
2017-Nov-30 23:00N 44°10' E 028°39'0 0.0
2017-Nov-30 22:30N 44°10' E 028°39'0 0.0
2017-Nov-30 22:00N 44°10' E 028°39'0 0.0
2017-Nov-30 21:30N 44°10' E 028°39'0 0.0
2017-Nov-30 21:00N 44°10' E 028°39'0 0.0
2017-Nov-30 20:30N 44°10' E 028°39'0 0.0
2017-Nov-30 20:00N 44°10' E 028°39'0 0.0
2017-Nov-30 19:31N 44°10' E 028°39'0 0.0
2017-Nov-30 18:58N 44°10' E 028°39'0 0.0
2017-Nov-30 18:28N 44°10' E 028°39'0 0.0
2017-Nov-30 17:58N 44°10' E 028°39'0 0.0
2017-Nov-30 17:28N 44°10' E 028°39'0 0.0
2017-Nov-30 16:58N 44°10' E 028°39'0 0.0
2017-Nov-30 16:28N 44°10' E 028°39'0 0.0
2017-Nov-30 15:58N 44°10' E 028°39'0 0.0
2017-Nov-30 15:28N 44°10' E 028°39'0 0.0
2017-Nov-30 14:58N 44°10' E 028°39'0 0.0
2017-Nov-30 14:28N 44°10' E 028°39'0 0.0
2017-Nov-30 13:58N 44°10' E 028°39'  

Dump ship's entire track history